createdAt,value
2018-07-01T00:00:23.033Z,26.47
2018-07-01T00:01:32.452Z,26.62
2018-07-01T00:02:41.865Z,26.52
2018-07-01T00:03:51.541Z,26.58
2018-07-01T00:05:00.969Z,26.5
2018-07-01T00:06:10.396Z,26.54
2018-07-01T00:07:19.803Z,26.47
2018-07-01T00:08:28.953Z,26.54
2018-07-01T00:09:38.623Z,26.48
2018-07-01T00:10:48.199Z,26.45
2018-07-01T00:11:57.821Z,26.52
2018-07-01T00:13:07.498Z,26.57
2018-07-01T00:14:17.161Z,26.52
2018-07-01T00:15:27.079Z,26.52
2018-07-01T00:16:36.248Z,26.48
2018-07-01T00:17:45.932Z,26.54
2018-07-01T00:18:55.350Z,26.55
2018-07-01T00:20:04.246Z,26.52
2018-07-01T00:21:13.920Z,26.45
2018-07-01T00:22:23.075Z,26.44
2018-07-01T00:23:32.230Z,26.48
2018-07-01T00:24:42.159Z,26.47
2018-07-01T00:25:51.558Z,26.48
2018-07-01T00:27:00.983Z,26.48
2018-07-01T00:28:10.644Z,26.51
2018-07-01T00:29:20.310Z,26.47
2018-07-01T00:30:29.975Z,26.44
2018-07-01T00:31:38.620Z,26.48
2018-07-01T00:32:47.508Z,26.43
2018-07-01T00:33:56.922Z,26.5
2018-07-01T00:35:06.601Z,26.44
2018-07-01T00:36:15.999Z,26.45
2018-07-01T00:37:25.159Z,26.39
2018-07-01T00:38:34.602Z,26.45
2018-07-01T00:39:43.992Z,26.44
2018-07-01T00:40:53.911Z,26.44
2018-07-01T00:42:03.313Z,26.39
2018-07-01T00:43:12.983Z,26.37
2018-07-01T00:44:22.425Z,26.44
2018-07-01T00:45:31.318Z,26.36
2018-07-01T00:46:40.741Z,26.37
2018-07-01T00:47:50.151Z,26.39
2018-07-01T00:48:59.825Z,26.35
2018-07-01T00:50:09.239Z,26.33
2018-07-01T00:51:18.918Z,26.35
2018-07-01T00:52:28.344Z,26.29
2018-07-01T00:53:37.491Z,26.32
2018-07-01T00:54:46.893Z,26.32
2018-07-01T00:55:56.551Z,26.26
2018-07-01T00:57:06.209Z,26.23
2018-07-01T00:58:14.843Z,26.25
2018-07-01T00:59:24.241Z,26.26
2018-07-01T01:00:33.671Z,26.3
2018-07-01T01:01:43.070Z,26.3
2018-07-01T01:02:52.739Z,26.28
2018-07-01T01:04:02.420Z,26.28
2018-07-01T01:05:12.098Z,26.32
2018-07-01T01:06:21.016Z,26.26
2018-07-01T01:07:30.676Z,26.32
2018-07-01T01:08:39.845Z,26.21
2018-07-01T01:09:49.706Z,26.29
2018-07-01T01:10:59.370Z,26.25
2018-07-01T01:12:08.530Z,26.32
2018-07-01T01:13:17.948Z,26.29
2018-07-01T01:14:27.879Z,26.28
2018-07-01T01:15:37.359Z,26.25
2018-07-01T01:16:47.277Z,26.18
2018-07-01T01:17:56.942Z,26.26
2018-07-01T01:19:05.850Z,26.2
2018-07-01T01:20:15.253Z,26.21
2018-07-01T01:21:24.155Z,26.23
2018-07-01T01:22:33.572Z,26.21
2018-07-01T01:23:42.980Z,26.25
2018-07-01T01:24:52.391Z,26.23
2018-07-01T01:26:02.078Z,26.18
2018-07-01T01:27:12.009Z,26.18
2018-07-01T01:28:21.687Z,26.1
2018-07-01T01:29:31.099Z,26.18
2018-07-01T01:30:40.256Z,26.09
2018-07-01T01:31:49.421Z,26.15
2018-07-01T01:32:58.835Z,26.09
2018-07-01T01:34:08.251Z,26.05
2018-07-01T01:35:17.929Z,26.06
2018-07-01T01:36:27.342Z,26.13
2018-07-01T01:37:37.006Z,26.15
2018-07-01T01:38:46.414Z,26.13
2018-07-01T01:39:56.329Z,26.1
2018-07-01T01:41:06.006Z,26.12
2018-07-01T01:42:14.658Z,26.13
2018-07-01T01:43:24.076Z,26.07
2018-07-01T01:44:33.752Z,26.1
2018-07-01T01:45:42.897Z,26.1
2018-07-01T01:46:52.044Z,26.13
2018-07-01T01:48:01.447Z,26.12
2018-07-01T01:49:11.137Z,26.15
2018-07-01T01:50:20.794Z,26.12
2018-07-01T01:51:29.947Z,25.99
2018-07-01T01:52:39.623Z,26.15
2018-07-01T01:53:49.314Z,25.98
2018-07-01T01:54:58.726Z,25.99
2018-07-01T01:56:08.135Z,26.01
2018-07-01T01:57:17.048Z,26.01
2018-07-01T01:58:26.202Z,26.09
2018-07-01T01:59:35.606Z,25.99
2018-07-01T02:00:45.025Z,26.09
2018-07-01T02:01:54.692Z,26.01
2018-07-01T02:03:04.120Z,25.99
2018-07-01T02:04:13.257Z,26.06
2018-07-01T02:05:22.669Z,26.06
2018-07-01T02:06:32.448Z,26.01
2018-07-01T02:07:42.109Z,25.98
2018-07-01T02:08:51.548Z,25.99
2018-07-01T02:10:00.969Z,25.92
2018-07-01T02:11:10.392Z,25.92
2018-07-01T02:12:19.560Z,26.01
2018-07-01T02:13:28.737Z,26.02
2018-07-01T02:14:37.884Z,26.1
2018-07-01T02:15:47.294Z,26.05
2018-07-01T02:16:56.452Z,26.07
2018-07-01T02:18:05.862Z,25.98
2018-07-01T02:19:15.010Z,25.94
2018-07-01T02:20:24.682Z,25.99
2018-07-01T02:21:34.612Z,26.01
2018-07-01T02:22:43.769Z,26.05
2018-07-01T02:23:53.176Z,25.97
2018-07-01T02:25:02.061Z,26.01
2018-07-01T02:26:11.728Z,26.09
2018-07-01T02:27:20.888Z,26.1
2018-07-01T02:28:30.043Z,25.99
2018-07-01T02:29:39.448Z,26.06
2018-07-01T02:30:48.599Z,26.01
2018-07-01T02:31:58.554Z,26.05
2018-07-01T02:33:08.213Z,26.06
2018-07-01T02:34:17.620Z,25.95
2018-07-01T02:35:26.588Z,25.99
2018-07-01T02:36:36.707Z,26.01
2018-07-01T02:37:46.112Z,26.02
2018-07-01T02:38:56.046Z,26.05
2018-07-01T02:40:05.969Z,26.01
2018-07-01T02:41:15.130Z,26.01
2018-07-01T02:42:24.563Z,25.92
2018-07-01T02:43:33.970Z,26.02
2018-07-01T02:44:43.412Z,25.98
2018-07-01T02:45:52.595Z,25.95
2018-07-01T02:47:02.267Z,25.92
2018-07-01T02:48:11.930Z,25.95
2018-07-01T02:49:21.087Z,26.05
2018-07-01T02:50:30.496Z,25.95
2018-07-01T02:51:40.165Z,25.92
2018-07-01T02:52:49.830Z,25.99
2018-07-01T02:53:59.228Z,26.01
2018-07-01T02:55:09.177Z,25.92
2018-07-01T02:56:18.852Z,25.94
2018-07-01T02:57:28.768Z,25.97
2018-07-01T02:58:38.197Z,25.97
2018-07-01T02:59:47.861Z,25.95
2018-07-01T03:00:57.541Z,25.97
2018-07-01T03:02:06.944Z,25.99
2018-07-01T03:03:16.376Z,25.95
2018-07-01T03:04:26.050Z,25.97
2018-07-01T03:05:34.946Z,25.97
2018-07-01T03:06:44.358Z,25.94
2018-07-01T03:07:53.782Z,25.97
2018-07-01T03:09:03.192Z,25.97
2018-07-01T03:10:12.094Z,25.95
2018-07-01T03:11:21.507Z,25.97
2018-07-01T03:12:31.196Z,25.91
2018-07-01T03:13:40.860Z,25.97
2018-07-01T03:14:50.524Z,25.91
2018-07-01T03:15:59.934Z,25.94
2018-07-01T03:17:09.607Z,25.91
2018-07-01T03:18:19.027Z,25.92
2018-07-01T03:19:28.960Z,25.91
2018-07-01T03:20:38.380Z,25.9
2018-07-01T03:21:48.059Z,25.94
2018-07-01T03:22:56.973Z,25.91
2018-07-01T03:24:06.398Z,25.88
2018-07-01T03:25:15.800Z,25.92
2018-07-01T03:26:25.208Z,25.91
2018-07-01T03:27:34.617Z,25.82
2018-07-01T03:28:43.765Z,25.94
2018-07-01T03:29:53.167Z,25.9
2018-07-01T03:31:02.569Z,25.91
2018-07-01T03:32:11.731Z,25.87
2018-07-01T03:33:21.143Z,25.91
2018-07-01T03:34:30.555Z,25.8
2018-07-01T03:35:40.221Z,25.82
2018-07-01T03:36:49.631Z,25.88
2018-07-01T03:37:58.795Z,25.87
2018-07-01T03:39:08.705Z,25.82
2018-07-01T03:40:18.131Z,25.8
2018-07-01T03:41:27.295Z,25.87
2018-07-01T03:42:36.968Z,25.82
2018-07-01T03:43:46.896Z,25.73
2018-07-01T03:44:56.312Z,25.77
2018-07-01T03:46:05.992Z,25.82
2018-07-01T03:47:15.146Z,25.83
2018-07-01T03:48:24.037Z,25.77
2018-07-01T03:49:33.693Z,25.87
2018-07-01T03:50:43.098Z,25.82
2018-07-01T03:51:51.993Z,25.8
2018-07-01T03:53:01.387Z,25.82
2018-07-01T03:54:10.534Z,25.76
2018-07-01T03:55:19.685Z,25.79
2018-07-01T03:56:29.086Z,25.76
2018-07-01T03:57:38.843Z,25.77
2018-07-01T03:58:48.075Z,25.75
2018-07-01T03:59:57.235Z,25.79
2018-07-01T04:01:06.665Z,25.75
2018-07-01T04:02:15.849Z,25.76
2018-07-01T04:03:25.242Z,25.77
2018-07-01T04:04:34.958Z,25.73
2018-07-01T04:05:44.113Z,25.69
2018-07-01T04:06:54.037Z,25.75
2018-07-01T04:08:03.183Z,25.69
2018-07-01T04:09:12.345Z,25.77
2018-07-01T04:10:22.021Z,25.72
2018-07-01T04:11:31.693Z,25.72
2018-07-01T04:12:41.104Z,25.72
2018-07-01T04:13:50.519Z,25.69
2018-07-01T04:14:59.409Z,25.73
2018-07-01T04:16:08.831Z,25.69
2018-07-01T04:17:18.230Z,25.7
2018-07-01T04:18:27.902Z,25.69
2018-07-01T04:19:37.315Z,25.73
2018-07-01T04:20:46.481Z,25.61
2018-07-01T04:21:55.890Z,25.73
2018-07-01T04:23:05.317Z,25.67
2018-07-01T04:24:14.993Z,25.69
2018-07-01T04:25:23.646Z,25.7
2018-07-01T04:26:33.060Z,25.62
2018-07-01T04:27:42.733Z,25.65
2018-07-01T04:28:51.640Z,25.67
2018-07-01T04:30:01.046Z,25.62
2018-07-01T04:31:10.733Z,25.62
2018-07-01T04:32:20.903Z,25.65
2018-07-01T04:33:30.318Z,25.65
2018-07-01T04:34:39.979Z,25.64
2018-07-01T04:35:49.399Z,25.67
2018-07-01T04:36:59.095Z,25.67
2018-07-01T04:38:09.023Z,25.65
2018-07-01T04:39:18.688Z,25.6
2018-07-01T04:40:28.100Z,25.62
2018-07-01T04:41:37.244Z,25.61
2018-07-01T04:42:46.648Z,25.62
2018-07-01T04:43:56.065Z,25.6
2018-07-01T04:45:05.218Z,25.57
2018-07-01T04:46:14.884Z,25.58
2018-07-01T04:47:24.289Z,25.62
2018-07-01T04:48:33.189Z,25.62
2018-07-01T04:49:42.592Z,25.67
2018-07-01T04:50:51.995Z,25.62
2018-07-01T04:52:01.405Z,25.62
2018-07-01T04:53:10.560Z,25.57
2018-07-01T04:54:19.515Z,25.57
2018-07-01T04:55:29.218Z,25.55
2018-07-01T04:56:38.887Z,25.57
2018-07-01T04:57:47.779Z,25.54
2018-07-01T04:58:56.928Z,25.61
2018-07-01T05:00:06.336Z,25.55
2018-07-01T05:01:15.765Z,25.6
2018-07-01T05:02:25.353Z,25.65
2018-07-01T05:03:34.531Z,25.54
2018-07-01T05:04:44.215Z,25.54
2018-07-01T05:05:53.359Z,25.57
2018-07-01T05:07:03.015Z,25.65
2018-07-01T05:08:12.422Z,25.61
2018-07-01T05:09:21.957Z,25.58
2018-07-01T05:10:31.615Z,25.46
2018-07-01T05:11:41.297Z,25.62
2018-07-01T05:12:50.970Z,25.51
2018-07-01T05:14:00.626Z,25.57
2018-07-01T05:15:10.020Z,25.52
2018-07-01T05:16:19.694Z,25.6
2018-07-01T05:17:29.093Z,25.52
2018-07-01T05:18:38.567Z,25.52
2018-07-01T05:19:47.717Z,25.54
2018-07-01T05:20:57.377Z,25.61
2018-07-01T05:22:06.516Z,25.57
2018-07-01T05:23:15.924Z,25.54
2018-07-01T05:24:25.348Z,25.57
2018-07-01T05:25:35.281Z,25.57
2018-07-01T05:26:44.707Z,25.62
2018-07-01T05:27:53.607Z,25.57
2018-07-01T05:29:02.767Z,25.61
2018-07-01T05:30:12.444Z,25.58
2018-07-01T05:31:22.124Z,25.54
2018-07-01T05:32:31.266Z,25.6
2018-07-01T05:33:40.527Z,25.52
2018-07-01T05:34:50.299Z,25.64
2018-07-01T05:35:59.722Z,25.55
2018-07-01T05:37:09.211Z,25.58
2018-07-01T05:38:18.605Z,25.61
2018-07-01T05:39:28.011Z,25.52
2018-07-01T05:40:37.667Z,25.62
2018-07-01T05:41:46.609Z,25.52
2018-07-01T05:42:56.009Z,25.55
2018-07-01T05:44:05.159Z,25.6
2018-07-01T05:45:14.808Z,25.58
2018-07-01T05:46:24.474Z,25.55
2018-07-01T05:47:34.401Z,25.67
2018-07-01T05:48:43.286Z,25.52
2018-07-01T05:49:52.707Z,25.54
2018-07-01T05:51:02.362Z,25.58
2018-07-01T05:52:11.521Z,25.55
2018-07-01T05:53:21.199Z,25.6
2018-07-01T05:54:30.606Z,25.58
2018-07-01T05:55:40.276Z,25.58
2018-07-01T05:56:49.194Z,25.61
2018-07-01T05:57:58.615Z,25.62
2018-07-01T05:59:08.027Z,25.6
2018-07-01T06:00:17.430Z,25.54
2018-07-01T06:01:26.323Z,25.64
2018-07-01T06:02:35.468Z,25.6
2018-07-01T06:03:44.415Z,25.61
2018-07-01T06:04:53.545Z,25.65
2018-07-01T06:06:02.959Z,25.61
2018-07-01T06:07:11.613Z,25.64
2018-07-01T06:08:20.760Z,25.61
2018-07-01T06:09:30.190Z,25.65
2018-07-01T06:10:39.850Z,25.7
2018-07-01T06:11:49.270Z,25.65
2018-07-01T06:12:58.434Z,25.67
2018-07-01T06:14:07.638Z,25.6
2018-07-01T06:15:17.010Z,25.65
2018-07-01T06:16:27.186Z,25.65
2018-07-01T06:17:37.027Z,25.67
2018-07-01T06:18:46.744Z,25.65
2018-07-01T06:19:56.152Z,25.7
2018-07-01T06:21:05.871Z,25.62
2018-07-01T06:22:15.039Z,25.7
2018-07-01T06:23:24.192Z,25.69
2018-07-01T06:24:33.674Z,25.72
2018-07-01T06:25:42.564Z,25.61
2018-07-01T06:26:51.779Z,25.69
2018-07-01T06:28:01.206Z,25.7
2018-07-01T06:29:10.093Z,25.65
2018-07-01T06:30:19.767Z,25.7
2018-07-01T06:31:29.176Z,25.7
2018-07-01T06:32:38.851Z,25.7
2018-07-01T06:33:48.268Z,25.69
2018-07-01T06:34:58.195Z,25.73
2018-07-01T06:36:07.613Z,25.73
2018-07-01T06:37:16.762Z,25.75
2018-07-01T06:38:26.176Z,25.72
2018-07-01T06:39:35.586Z,25.76
2018-07-01T06:40:44.806Z,25.76
2018-07-01T06:41:54.249Z,25.7
2018-07-01T06:43:03.826Z,25.77
2018-07-01T06:44:13.297Z,25.79
2018-07-01T06:45:22.697Z,25.79
2018-07-01T06:46:32.179Z,25.76
2018-07-01T06:47:41.336Z,25.77
2018-07-01T06:48:51.063Z,25.75
2018-07-01T06:50:00.733Z,25.76
2018-07-01T06:51:09.893Z,25.77
2018-07-01T06:52:19.310Z,25.83
2018-07-01T06:53:28.454Z,25.75
2018-07-01T06:54:38.112Z,25.79
2018-07-01T06:55:48.032Z,25.8
2018-07-01T06:56:57.716Z,25.8
2018-07-01T06:58:07.117Z,25.77
2018-07-01T06:59:16.265Z,25.79
2018-07-01T07:00:25.667Z,25.73
2018-07-01T07:01:35.587Z,25.77
2018-07-01T07:02:44.737Z,25.77
2018-07-01T07:03:53.436Z,25.82
2018-07-01T07:05:02.843Z,25.82
2018-07-01T07:06:12.514Z,25.8
2018-07-01T07:07:21.931Z,25.77
2018-07-01T07:08:31.084Z,25.87
2018-07-01T07:09:40.509Z,25.75
2018-07-01T07:10:50.184Z,25.87
2018-07-01T07:11:59.604Z,25.87
2018-07-01T07:13:08.752Z,25.85
2018-07-01T07:14:18.431Z,25.77
2018-07-01T07:15:27.585Z,25.85
2018-07-01T07:16:37.257Z,25.85
2018-07-01T07:17:46.414Z,25.82
2018-07-01T07:18:55.819Z,25.9
2018-07-01T07:20:04.979Z,25.83
2018-07-01T07:21:14.132Z,25.85
2018-07-01T07:22:23.024Z,25.9
2018-07-01T07:23:32.172Z,25.87
2018-07-01T07:24:41.936Z,25.9
2018-07-01T07:25:51.358Z,25.83
2018-07-01T07:27:00.516Z,25.9
2018-07-01T07:28:10.213Z,25.92
2018-07-01T07:29:19.885Z,25.87
2018-07-01T07:30:28.808Z,25.9
2018-07-01T07:31:38.235Z,25.95
2018-07-01T07:32:47.391Z,25.9
2018-07-01T07:33:56.818Z,25.95
2018-07-01T07:35:06.497Z,25.88
2018-07-01T07:36:16.154Z,25.92
2018-07-01T07:37:25.836Z,25.91
2018-07-01T07:38:35.542Z,25.91
2018-07-01T07:39:44.718Z,25.91
2018-07-01T07:40:53.881Z,25.92
2018-07-01T07:42:02.847Z,25.98
2018-07-01T07:43:12.510Z,25.97
2018-07-01T07:44:21.670Z,25.97
2018-07-01T07:45:30.681Z,25.97
2018-07-01T07:46:40.627Z,25.95
2018-07-01T07:47:50.222Z,26.01
2018-07-01T07:48:59.691Z,26.06
2018-07-01T07:50:08.936Z,26.06
2018-07-01T07:51:18.121Z,26.09
2018-07-01T07:52:27.932Z,25.99
2018-07-01T07:53:37.095Z,26.06
2018-07-01T07:54:46.296Z,26.09
2018-07-01T07:55:54.957Z,25.94
2018-07-01T07:57:04.503Z,26.02
2018-07-01T07:58:13.306Z,25.97
2018-07-01T07:59:22.964Z,25.99
2018-07-01T08:00:32.390Z,26.01
2018-07-01T08:01:42.056Z,25.97
2018-07-01T08:02:51.714Z,26.02
2018-07-01T08:04:00.862Z,25.94
2018-07-01T08:05:10.539Z,26.01
2018-07-01T08:06:20.228Z,26.02
2018-07-01T08:07:29.661Z,26.05
2018-07-01T08:08:38.518Z,25.98
2018-07-01T08:09:48.202Z,25.95
2018-07-01T08:10:57.371Z,25.95
2018-07-01T08:12:06.266Z,25.97
2018-07-01T08:13:15.995Z,26.05
2018-07-01T08:14:25.400Z,26.1
2018-07-01T08:15:34.813Z,26.07
2018-07-01T08:16:44.506Z,25.99
2018-07-01T08:17:53.914Z,26.01
2018-07-01T08:19:03.316Z,25.98
2018-07-01T08:20:12.721Z,25.98
2018-07-01T08:21:22.662Z,26.01
2018-07-01T08:22:31.830Z,26.05
2018-07-01T08:23:41.234Z,26.06
2018-07-01T08:24:50.379Z,26.1
2018-07-01T08:25:59.795Z,26.06
2018-07-01T08:27:08.696Z,25.99
2018-07-01T08:28:17.862Z,26.12
2018-07-01T08:29:26.769Z,26.13
2018-07-01T08:30:35.935Z,26.07
2018-07-01T08:31:45.332Z,26.12
2018-07-01T08:32:54.787Z,26.1
2018-07-01T08:34:04.502Z,26.1
2018-07-01T08:35:13.923Z,26.1
2018-07-01T08:36:23.577Z,26.07
2018-07-01T08:37:32.990Z,26.1
2018-07-01T08:38:42.154Z,26.13
2018-07-01T08:39:51.817Z,26.13
2018-07-01T08:41:01.217Z,26.05
2018-07-01T08:42:10.617Z,26.15
2018-07-01T08:43:20.020Z,26.15
2018-07-01T08:44:30.052Z,26.13
2018-07-01T08:45:39.193Z,26.07
2018-07-01T08:46:49.115Z,25.98
2018-07-01T08:47:58.514Z,25.99
2018-07-01T08:49:08.188Z,26.09
2018-07-01T08:50:17.602Z,26.12
2018-07-01T08:51:27.285Z,25.98
2018-07-01T08:52:37.460Z,26.02
2018-07-01T08:53:47.178Z,26.02
2018-07-01T08:54:56.338Z,25.99
2018-07-01T08:56:05.247Z,26.05
2018-07-01T08:57:14.931Z,26.01
2018-07-01T08:58:24.601Z,25.98
2018-07-01T08:59:34.005Z,26.15
2018-07-01T09:00:43.215Z,25.98
2018-07-01T09:01:52.899Z,26.12
2018-07-01T09:03:02.307Z,25.98
2018-07-01T09:04:11.727Z,25.98
2018-07-01T09:05:20.882Z,26.05
2018-07-01T09:06:30.056Z,26.05
2018-07-01T09:07:38.967Z,25.98
2018-07-01T09:08:47.936Z,25.95
2018-07-01T09:09:57.251Z,26.01
2018-07-01T09:11:06.400Z,25.97
2018-07-01T09:12:15.552Z,26.1
2018-07-01T09:13:24.446Z,25.98
2018-07-01T09:14:33.347Z,25.98
2018-07-01T09:15:42.494Z,26.06
2018-07-01T09:16:52.214Z,26.09
2018-07-01T09:18:01.363Z,26.05
2018-07-01T09:19:11.309Z,26.09
2018-07-01T09:20:20.969Z,26.01
2018-07-01T09:21:30.113Z,25.99
2018-07-01T09:22:38.996Z,25.97
2018-07-01T09:23:48.923Z,25.97
2018-07-01T09:24:58.611Z,26.05
2018-07-01T09:26:07.767Z,25.98
2018-07-01T09:27:17.433Z,26.05
2018-07-01T09:28:27.410Z,25.95
2018-07-01T09:29:36.055Z,26.05
2018-07-01T09:30:45.471Z,25.98
2018-07-01T09:31:54.642Z,25.97
2018-07-01T09:33:04.439Z,25.94
2018-07-01T09:34:14.322Z,26.01
2018-07-01T09:35:24.593Z,26.01
2018-07-01T09:36:34.411Z,25.98
2018-07-01T09:37:43.847Z,26.05
2018-07-01T09:38:52.799Z,26.06
2018-07-01T09:40:01.949Z,26.1
2018-07-01T09:41:11.399Z,26.01
2018-07-01T09:42:20.620Z,26.06
2018-07-01T09:43:30.769Z,26.06
2018-07-01T09:44:40.929Z,26.09
2018-07-01T09:45:50.590Z,26.1
2018-07-01T09:46:59.762Z,26.1
2018-07-01T09:48:10.064Z,26.1
2018-07-01T09:49:20.361Z,26.15
2018-07-01T09:50:30.530Z,26.13
2018-07-01T09:51:41.008Z,26.15
2018-07-01T09:52:50.861Z,26.05
2018-07-01T09:54:00.431Z,26.12
2018-07-01T09:55:10.434Z,26.09
2018-07-01T09:56:19.593Z,26.12
2018-07-01T09:57:28.776Z,26.07
2018-07-01T09:58:39.569Z,26.12
2018-07-01T09:59:49.480Z,26.09
2018-07-01T10:00:59.715Z,26.12
2018-07-01T10:02:08.856Z,26.15
2018-07-01T10:03:18.554Z,26.07
2018-07-01T10:04:27.967Z,26.13
2018-07-01T10:05:37.639Z,26.1
2018-07-01T10:06:47.297Z,26.09
2018-07-01T10:07:56.701Z,26.09
2018-07-01T10:09:05.853Z,26.12
2018-07-01T10:10:14.998Z,26.09
2018-07-01T10:11:24.400Z,26.12
2018-07-01T10:12:33.564Z,26.13
2018-07-01T10:13:43.238Z,26.12
2018-07-01T10:14:52.652Z,26.09
2018-07-01T10:16:02.050Z,26.12
2018-07-01T10:17:11.214Z,26.06
2018-07-01T10:18:20.626Z,26.12
2018-07-01T10:19:30.037Z,26.09
2018-07-01T10:20:39.181Z,26.09
2018-07-01T10:21:49.094Z,26.1
2018-07-01T10:22:58.240Z,26.18
2018-07-01T10:24:07.668Z,26.13
2018-07-01T10:25:17.327Z,26.1
2018-07-01T10:26:26.519Z,26.2
2018-07-01T10:27:35.786Z,26.09
2018-07-01T10:28:45.193Z,26.12
2018-07-01T10:29:54.657Z,26.12
2018-07-01T10:31:03.541Z,26.1
2018-07-01T10:32:12.432Z,26.09
2018-07-01T10:33:22.101Z,26.15
2018-07-01T10:34:31.061Z,26.07
2018-07-01T10:35:40.481Z,26.15
2018-07-01T10:36:50.158Z,26.1
2018-07-01T10:37:59.571Z,26.09
2018-07-01T10:39:08.746Z,26.07
2018-07-01T10:40:18.508Z,26.2
2018-07-01T10:41:28.202Z,26.09
2018-07-01T10:42:37.353Z,26.12
2018-07-01T10:43:47.012Z,26.18
2018-07-01T10:44:56.162Z,26.09
2018-07-01T10:46:05.580Z,26.1
2018-07-01T10:47:14.738Z,26.09
2018-07-01T10:48:23.893Z,26.09
2018-07-01T10:49:33.056Z,26.09
2018-07-01T10:50:42.454Z,26.09
2018-07-01T10:51:51.352Z,26.09
2018-07-01T10:53:01.276Z,26.17
2018-07-01T10:54:10.941Z,26.09
2018-07-01T10:55:20.365Z,26.23
2018-07-01T10:56:29.777Z,26.09
2018-07-01T10:57:39.292Z,26.09
2018-07-01T10:58:49.272Z,26.2
2018-07-01T10:59:58.451Z,26.21
2018-07-01T11:01:07.875Z,26.07
2018-07-01T11:02:17.820Z,26.13
2018-07-01T11:03:27.496Z,26.09
2018-07-01T11:04:36.656Z,26.12
2018-07-01T11:05:46.067Z,26.21
2018-07-01T11:06:55.736Z,26.06
2018-07-01T11:08:05.135Z,26.17
2018-07-01T11:09:14.286Z,26.2
2018-07-01T11:10:23.447Z,26.2
2018-07-01T11:11:32.593Z,26.09
2018-07-01T11:12:42.713Z,26.1
2018-07-01T11:13:52.117Z,26.09
2018-07-01T11:15:01.522Z,26.1
2018-07-01T11:16:11.195Z,26.18
2018-07-01T11:17:20.598Z,26.05
2018-07-01T11:18:29.746Z,26.15
2018-07-01T11:19:38.895Z,26.17
2018-07-01T11:20:48.048Z,26.09
2018-07-01T11:21:57.727Z,26.18
2018-07-01T11:23:06.881Z,26.18
2018-07-01T11:24:16.549Z,26.09
2018-07-01T11:25:26.494Z,26.2
2018-07-01T11:26:35.764Z,26.21
2018-07-01T11:27:46.004Z,26.06
2018-07-01T11:28:54.900Z,26.18
2018-07-01T11:30:04.583Z,26.2
2018-07-01T11:31:13.995Z,26.1
2018-07-01T11:32:23.399Z,26.17
2018-07-01T11:33:33.056Z,26.2
2018-07-01T11:34:42.471Z,26.17
2018-07-01T11:35:51.620Z,26.1
2018-07-01T11:37:00.506Z,26.09
2018-07-01T11:38:10.501Z,26.13
2018-07-01T11:39:20.180Z,26.21
2018-07-01T11:40:29.586Z,26.21
2018-07-01T11:41:38.990Z,26.29
2018-07-01T11:42:48.418Z,26.2
2018-07-01T11:43:57.570Z,26.17
2018-07-01T11:45:07.236Z,26.23
2018-07-01T11:46:16.393Z,26.29
2018-07-01T11:47:25.537Z,26.18
2018-07-01T11:48:35.192Z,26.21
2018-07-01T11:49:44.342Z,26.13
2018-07-01T11:50:53.813Z,26.26
2018-07-01T11:52:02.966Z,26.18
2018-07-01T11:53:11.864Z,26.25
2018-07-01T11:54:21.533Z,26.2
2018-07-01T11:55:30.935Z,26.17
2018-07-01T11:56:40.343Z,26.12
2018-07-01T11:57:49.745Z,26.26
2018-07-01T11:58:59.401Z,26.23
2018-07-01T12:00:09.448Z,26.28
2018-07-01T12:01:19.134Z,26.21
2018-07-01T12:02:28.287Z,26.29
2018-07-01T12:03:37.193Z,26.21
2018-07-01T12:05:20.281Z,26.28
2018-07-01T12:06:29.991Z,26.18
2018-07-01T12:07:39.698Z,26.28
2018-07-01T12:08:49.362Z,26.25
2018-07-01T12:09:58.530Z,26.29
2018-07-01T12:11:07.959Z,26.26
2018-07-01T12:12:17.394Z,26.21
2018-07-01T12:13:26.537Z,26.21
2018-07-01T12:14:35.937Z,26.17
2018-07-01T12:15:45.360Z,26.21
2018-07-01T12:16:54.514Z,26.21
2018-07-01T12:18:03.692Z,26.32
2018-07-01T12:19:12.857Z,26.21
2018-07-01T12:20:22.023Z,26.2
2018-07-01T12:21:30.923Z,26.28
2018-07-01T12:22:40.070Z,26.28
2018-07-01T12:23:49.486Z,26.25
2018-07-01T12:24:58.640Z,26.33
2018-07-01T12:26:08.300Z,26.25
2018-07-01T12:27:17.706Z,26.26
2018-07-01T12:28:27.131Z,26.26
2018-07-01T12:29:36.287Z,26.25
2018-07-01T12:30:45.974Z,26.26
2018-07-01T12:31:55.917Z,26.25
2018-07-01T12:33:05.322Z,26.25
2018-07-01T12:34:14.747Z,26.28
2018-07-01T12:35:23.894Z,26.23
2018-07-01T12:36:33.341Z,26.25
2018-07-01T12:37:42.234Z,26.3
2018-07-01T12:38:51.392Z,26.33
2018-07-01T12:40:00.801Z,26.3
2018-07-01T12:41:09.953Z,26.2
2018-07-01T12:42:19.800Z,26.29
2018-07-01T12:43:29.679Z,26.25
2018-07-01T12:44:39.343Z,26.29
2018-07-01T12:45:49.014Z,26.29
2018-07-01T12:46:57.907Z,26.32
2018-07-01T12:48:07.561Z,26.29
2018-07-01T12:49:17.284Z,26.25
2018-07-01T12:50:26.445Z,26.26
2018-07-01T12:51:35.605Z,26.26
2018-07-01T12:52:44.256Z,26.29
2018-07-01T12:53:53.405Z,26.33
2018-07-01T12:55:02.610Z,26.29
2018-07-01T12:56:12.394Z,26.33
2018-07-01T12:57:22.716Z,26.3
2018-07-01T12:58:31.853Z,26.36
2018-07-01T12:59:41.259Z,26.32
2018-07-01T13:00:50.153Z,26.3
2018-07-01T13:01:59.671Z,26.32
2018-07-01T13:03:08.608Z,26.3
2018-07-01T13:04:18.016Z,26.33
2018-07-01T13:05:27.167Z,26.33
2018-07-01T13:06:36.585Z,26.32
2018-07-01T13:07:45.740Z,26.39
2018-07-01T13:08:54.663Z,26.33
2018-07-01T13:10:04.326Z,26.35
2018-07-01T13:11:13.991Z,26.33
2018-07-01T13:12:23.504Z,26.3
2018-07-01T13:13:32.392Z,26.43
2018-07-01T13:14:41.566Z,26.33
2018-07-01T13:15:50.981Z,26.35
2018-07-01T13:17:00.124Z,26.39
2018-07-01T13:18:09.546Z,26.37
2018-07-01T13:19:18.956Z,26.44
2018-07-01T13:20:28.647Z,26.47
2018-07-01T13:21:38.328Z,26.39
2018-07-01T13:22:47.994Z,26.36
2018-07-01T13:23:57.395Z,26.48
2018-07-01T13:25:07.135Z,26.44
2018-07-01T13:26:16.918Z,26.45
2018-07-01T13:27:26.065Z,26.44
2018-07-01T13:28:35.208Z,26.37
2018-07-01T13:29:45.131Z,26.47
2018-07-01T13:30:54.550Z,26.47
2018-07-01T13:32:03.711Z,26.47
2018-07-01T13:33:13.429Z,26.48
2018-07-01T13:34:23.122Z,26.39
2018-07-01T13:35:32.270Z,26.43
2018-07-01T13:36:41.168Z,26.48
2018-07-01T13:37:50.839Z,26.47
2018-07-01T13:38:59.988Z,26.44
2018-07-01T13:40:09.409Z,26.44
2018-07-01T13:41:18.589Z,26.5
2018-07-01T13:42:28.007Z,26.47
2018-07-01T13:43:36.914Z,26.47
2018-07-01T13:44:46.334Z,26.51
2018-07-01T13:45:55.489Z,26.54
2018-07-01T13:47:04.901Z,26.54
2018-07-01T13:48:14.313Z,26.54
2018-07-01T13:49:23.924Z,26.57
2018-07-01T13:50:33.085Z,26.52
2018-07-01T13:51:42.493Z,26.52
2018-07-01T13:52:51.396Z,26.54
2018-07-01T13:54:00.546Z,26.51
2018-07-01T13:55:10.245Z,26.6
2018-07-01T13:56:19.921Z,26.66
2018-07-01T13:57:29.336Z,26.57
2018-07-01T13:58:37.993Z,26.6
2018-07-01T13:59:47.167Z,26.62
2018-07-01T14:00:57.083Z,26.63
2018-07-01T14:02:05.970Z,26.65
2018-07-01T14:03:15.923Z,26.6
2018-07-01T14:04:25.332Z,26.6
2018-07-01T14:05:34.499Z,26.65
2018-07-01T14:06:43.845Z,26.65
2018-07-01T14:07:53.085Z,26.65
2018-07-01T14:09:01.974Z,26.67
2018-07-01T14:10:11.114Z,26.65
2018-07-01T14:11:20.538Z,26.65
2018-07-01T14:12:29.767Z,26.69
2018-07-01T14:13:38.911Z,26.66
2018-07-01T14:14:48.165Z,26.63
2018-07-01T14:15:57.579Z,26.75
2018-07-01T14:17:06.738Z,26.66
2018-07-01T14:18:16.425Z,26.7
2018-07-01T14:19:26.082Z,26.75
2018-07-01T14:20:35.739Z,26.81
2018-07-01T14:21:45.396Z,26.65
2018-07-01T14:22:55.053Z,26.7
2018-07-01T14:24:04.464Z,26.72
2018-07-01T14:25:13.879Z,26.73
2018-07-01T14:26:23.559Z,26.7
2018-07-01T14:27:33.227Z,26.77
2018-07-01T14:28:42.628Z,26.76
2018-07-01T14:29:52.225Z,26.84
2018-07-01T14:31:01.897Z,26.73
2018-07-01T14:32:11.302Z,26.82
2018-07-01T14:33:20.459Z,26.76
2018-07-01T14:34:29.354Z,26.75
2018-07-01T14:35:38.837Z,26.72
2018-07-01T14:36:48.649Z,26.75
2018-07-01T14:37:58.078Z,26.88
2018-07-01T14:39:07.223Z,26.85
2018-07-01T14:40:16.889Z,26.84
2018-07-01T14:41:26.557Z,26.81
2018-07-01T14:42:35.965Z,26.84
2018-07-01T14:43:45.472Z,26.84
2018-07-01T14:44:54.371Z,26.88
2018-07-01T14:46:03.532Z,26.85
2018-07-01T14:47:12.172Z,26.84
2018-07-01T14:48:21.599Z,26.91
2018-07-01T14:49:31.262Z,26.85
2018-07-01T14:50:40.691Z,26.81
2018-07-01T14:51:50.149Z,26.94
2018-07-01T14:52:59.835Z,26.87
2018-07-01T14:54:09.253Z,26.82
2018-07-01T14:55:18.167Z,26.84
2018-07-01T14:56:27.056Z,26.92
2018-07-01T14:57:36.460Z,26.84